createdAt,value
2022-08-21T00:00:51.931Z,13.13
2022-08-21T00:03:55.616Z,11.80
2022-08-21T00:06:59.875Z,16.58
2022-08-21T00:10:03.057Z,12.02
2022-08-21T00:13:07.471Z,11.77
2022-08-21T00:16:12.764Z,10.27
2022-08-21T00:19:15.898Z,12.07
2022-08-21T00:22:19.157Z,11.82
2022-08-21T00:25:24.407Z,12.80
2022-08-21T00:28:29.273Z,10.70
2022-08-21T00:31:33.658Z,12.40
2022-08-21T00:34:37.470Z,10.88
2022-08-21T00:37:40.870Z,11.18
2022-08-21T00:40:49.502Z,11.57
2022-08-21T00:43:52.699Z,13.23
2022-08-21T00:46:57.240Z,14.10
2022-08-21T00:50:00.390Z,13.50
2022-08-21T00:53:05.130Z,10.63
2022-08-21T00:56:11.667Z,11.30
2022-08-21T00:59:14.805Z,11.18
2022-08-21T01:02:21.132Z,12.00
2022-08-21T01:05:24.286Z,16.25
2022-08-21T01:08:28.410Z,13.98
2022-08-21T01:11:32.117Z,11.65
2022-08-21T01:14:35.782Z,11.52
2022-08-21T01:17:40.600Z,12.05
2022-08-21T01:20:47.091Z,10.60
2022-08-21T01:23:57.284Z,10.70
2022-08-21T01:27:01.561Z,11.95
2022-08-21T01:30:12.902Z,17.27
2022-08-21T01:33:15.908Z,14.25
2022-08-21T01:36:20.087Z,17.42
2022-08-21T01:39:24.793Z,12.55
2022-08-21T01:42:28.096Z,12.75
2022-08-21T01:45:32.074Z,11.50
2022-08-21T01:48:35.473Z,18.33
2022-08-21T01:51:38.508Z,11.38
2022-08-21T01:54:43.862Z,9.82
2022-08-21T01:57:49.436Z,14.40
2022-08-21T02:00:52.467Z,12.85
2022-08-21T02:03:57.205Z,11.55
2022-08-21T02:07:01.042Z,12.50
2022-08-21T02:10:08.548Z,12.13
2022-08-21T02:13:13.340Z,12.23
2022-08-21T02:16:19.163Z,13.75
2022-08-21T02:19:22.799Z,10.52
2022-08-21T02:22:25.767Z,12.80
2022-08-21T02:25:31.469Z,13.02
2022-08-21T02:28:35.283Z,10.50
2022-08-21T02:31:38.453Z,12.60
2022-08-21T02:34:41.392Z,11.60
2022-08-21T02:37:47.773Z,12.90
2022-08-21T02:40:54.363Z,10.82
2022-08-21T02:43:57.366Z,12.50
2022-08-21T02:47:00.331Z,10.02
2022-08-21T02:50:03.491Z,13.32
2022-08-21T02:53:08.729Z,12.88
2022-08-21T02:56:15.913Z,10.30
2022-08-21T02:59:18.974Z,10.75
2022-08-21T03:02:23.103Z,10.80
2022-08-21T03:05:33.054Z,11.77
2022-08-21T03:08:36.307Z,16.80
2022-08-21T03:11:40.582Z,13.77
2022-08-21T03:14:43.572Z,13.80
2022-08-21T03:17:47.845Z,11.77
2022-08-21T03:20:51.444Z,12.25
2022-08-21T03:23:55.077Z,14.10
2022-08-21T03:27:00.819Z,10.93
2022-08-21T03:30:08.851Z,7.68
2022-08-21T03:33:15.044Z,9.80
2022-08-21T03:36:19.146Z,9.55
2022-08-21T03:39:22.491Z,10.68
2022-08-21T03:42:26.899Z,11.40
2022-08-21T03:45:30.019Z,9.00
2022-08-21T03:48:34.015Z,8.10
2022-08-21T03:51:37.043Z,6.35
2022-08-21T03:54:40.897Z,10.80
2022-08-21T03:57:45.368Z,6.97
2022-08-21T04:00:50.119Z,7.90
2022-08-21T04:03:53.075Z,11.40
2022-08-21T04:06:56.554Z,9.02
2022-08-21T04:09:59.508Z,8.82
2022-08-21T04:13:04.935Z,10.30
2022-08-21T04:16:09.178Z,6.85
2022-08-21T04:19:14.193Z,9.27
2022-08-21T04:22:17.581Z,8.50
2022-08-21T04:25:23.365Z,8.95
2022-08-21T04:28:30.424Z,7.75
2022-08-21T04:31:34.863Z,9.35
2022-08-21T04:34:37.896Z,7.82
2022-08-21T04:37:42.145Z,7.32
2022-08-21T04:40:45.515Z,9.20
2022-08-21T04:43:50.912Z,7.70
2022-08-21T04:46:53.918Z,9.70
2022-08-21T04:49:56.898Z,8.40
2022-08-21T04:53:02.066Z,8.23
2022-08-21T04:56:09.484Z,8.80
2022-08-21T04:59:18.209Z,9.20
2022-08-21T05:02:23.831Z,6.65
2022-08-21T05:05:27.323Z,8.38
2022-08-21T05:08:30.655Z,8.00
2022-08-21T05:11:35.985Z,7.63
2022-08-21T05:14:40.283Z,9.68
2022-08-21T05:17:43.740Z,9.27
2022-08-21T05:20:55.621Z,11.38
2022-08-21T05:23:58.627Z,8.05
2022-08-21T05:27:02.117Z,8.35
2022-08-21T05:30:11.554Z,11.60
2022-08-21T05:33:14.538Z,9.80
2022-08-21T05:36:18.596Z,13.45
2022-08-21T05:39:21.891Z,7.82
2022-08-21T05:42:24.914Z,7.45
2022-08-21T05:45:43.252Z,8.82
2022-08-21T05:48:47.078Z,12.30
2022-08-21T05:51:50.063Z,6.68
2022-08-21T05:54:54.855Z,11.18
2022-08-21T05:57:58.252Z,10.48
2022-08-21T06:01:04.707Z,7.45
2022-08-21T06:04:08.173Z,7.10
2022-08-21T06:07:11.925Z,6.60
2022-08-21T06:10:15.098Z,6.82
2022-08-21T06:13:21.695Z,10.55
2022-08-21T06:16:26.983Z,6.38
2022-08-21T06:19:30.009Z,10.95
2022-08-21T06:22:33.065Z,7.72
2022-08-21T06:25:36.831Z,9.80
2022-08-21T06:28:39.854Z,10.93
2022-08-21T06:31:45.137Z,7.30
2022-08-21T06:34:48.103Z,8.73
2022-08-21T06:37:51.105Z,10.00
2022-08-21T06:40:54.064Z,6.75
2022-08-21T06:43:58.331Z,11.80
2022-08-21T06:47:02.826Z,10.80
2022-08-21T06:50:08.489Z,9.10
2022-08-21T06:53:14.198Z,5.93
2022-08-21T06:56:17.591Z,6.10
2022-08-21T06:59:20.921Z,10.80
2022-08-21T07:02:25.250Z,6.60
2022-08-21T07:05:29.915Z,7.45
2022-08-21T07:08:32.891Z,7.97
2022-08-21T07:11:38.474Z,7.40
2022-08-21T07:14:53.033Z,11.52
2022-08-21T07:17:58.035Z,9.48
2022-08-21T07:21:02.963Z,6.60
2022-08-21T07:24:06.164Z,6.88
2022-08-21T07:27:10.173Z,8.55
2022-08-21T07:30:14.276Z,6.75
2022-08-21T07:33:18.570Z,6.45
2022-08-21T07:36:21.655Z,5.68
2022-08-21T07:39:24.668Z,6.28
2022-08-21T07:42:27.739Z,6.45
2022-08-21T07:45:31.369Z,12.30
2022-08-21T07:48:36.446Z,4.93
2022-08-21T07:51:39.859Z,6.05
2022-08-21T07:54:43.141Z,7.28
2022-08-21T07:57:46.538Z,4.43
2022-08-21T08:00:49.476Z,6.03
2022-08-21T08:03:54.031Z,7.97
2022-08-21T08:06:57.031Z,10.95
2022-08-21T08:10:00.393Z,4.85
2022-08-21T08:13:03.944Z,9.75
2022-08-21T08:16:07.859Z,5.10
2022-08-21T08:19:12.267Z,9.15
2022-08-21T08:22:16.886Z,6.10
2022-08-21T08:25:21.756Z,7.97
2022-08-21T08:28:24.914Z,5.63
2022-08-21T08:31:28.227Z,7.97
2022-08-21T08:34:32.577Z,7.22
2022-08-21T08:37:38.547Z,6.93
2022-08-21T08:40:52.363Z,5.68
2022-08-21T08:44:05.093Z,4.55
2022-08-21T08:47:11.244Z,5.28
2022-08-21T08:50:22.324Z,7.07
2022-08-21T08:53:31.726Z,7.70
2022-08-21T08:56:36.661Z,8.30
2022-08-21T08:59:44.275Z,6.43
2022-08-21T09:02:49.178Z,6.60
2022-08-21T09:06:02.461Z,3.88
2022-08-21T09:09:24.885Z,5.25
2022-08-21T09:12:40.338Z,6.15
2022-08-21T09:15:56.120Z,5.10
2022-08-21T09:19:10.908Z,7.97
2022-08-21T09:22:26.419Z,5.80
2022-08-21T09:25:35.830Z,6.68
2022-08-21T09:28:39.398Z,6.30
2022-08-21T09:31:42.451Z,5.75
2022-08-21T09:34:57.171Z,3.70
2022-08-21T09:38:06.765Z,3.67
2022-08-21T09:41:12.230Z,4.65
2022-08-21T09:44:15.220Z,6.22
2022-08-21T09:47:26.192Z,5.82
2022-08-21T09:50:30.123Z,7.97
2022-08-21T09:53:36.266Z,6.18
2022-08-21T09:56:59.419Z,6.28
2022-08-21T10:00:13.101Z,8.73
2022-08-21T10:03:21.228Z,4.10
2022-08-21T10:06:27.543Z,8.65
2022-08-21T10:09:33.627Z,6.68
2022-08-21T10:12:47.629Z,6.15
2022-08-21T10:16:18.006Z,6.88
2022-08-21T10:19:30.557Z,5.60
2022-08-21T10:22:42.790Z,7.28
2022-08-21T10:26:13.395Z,5.10
2022-08-21T10:29:36.547Z,7.18
2022-08-21T10:33:04.740Z,6.05
2022-08-21T10:36:15.723Z,6.20
2022-08-21T10:39:35.777Z,4.25
2022-08-21T10:42:51.734Z,6.15
2022-08-21T10:46:04.295Z,6.63
2022-08-21T10:49:20.157Z,6.10
2022-08-21T10:53:02.534Z,5.80
2022-08-21T10:56:18.250Z,4.72
2022-08-21T10:59:30.288Z,4.20
2022-08-21T11:02:40.827Z,3.90
2022-08-21T11:05:51.102Z,4.07
2022-08-21T11:09:00.622Z,5.28
2022-08-21T11:12:13.466Z,5.07
2022-08-21T11:15:36.706Z,5.13
2022-08-21T11:18:44.010Z,7.50
2022-08-21T11:21:54.663Z,4.03
2022-08-21T11:25:03.012Z,5.30
2022-08-21T11:28:15.278Z,4.05
2022-08-21T11:31:37.999Z,2.90
2022-08-21T11:34:58.291Z,4.93
2022-08-21T11:38:20.683Z,6.90
2022-08-21T11:41:31.374Z,5.00
2022-08-21T11:44:50.818Z,4.18
2022-08-21T11:48:09.634Z,5.07
2022-08-21T11:51:16.598Z,3.53
2022-08-21T11:54:27.699Z,4.18
2022-08-21T11:57:40.464Z,4.28
2022-08-21T12:00:49.768Z,4.85
2022-08-21T12:04:03.631Z,3.28
2022-08-21T12:07:13.911Z,2.05
2022-08-21T12:10:21.951Z,1.80
2022-08-21T12:13:39.862Z,2.72
2022-08-21T12:16:46.339Z,3.50
2022-08-21T12:20:02.488Z,2.65
2022-08-21T12:23:17.998Z,1.85
2022-08-21T12:26:29.277Z,2.90
2022-08-21T12:29:35.013Z,3.33
2022-08-21T12:32:47.867Z,2.20
2022-08-21T12:36:04.772Z,1.75
2022-08-21T12:39:18.766Z,3.40
2022-08-21T12:42:26.927Z,2.45
2022-08-21T12:45:35.586Z,3.10
2022-08-21T12:48:51.788Z,1.88
2022-08-21T12:52:02.519Z,3.28
2022-08-21T12:55:07.023Z,1.88
2022-08-21T12:58:20.321Z,3.28
2022-08-21T13:01:27.559Z,1.88
2022-08-21T13:04:39.840Z,7.38
2022-08-21T13:07:48.664Z,1.60
2022-08-21T13:11:00.310Z,2.00
2022-08-21T13:14:24.971Z,3.17
2022-08-21T13:17:34.524Z,3.38
2022-08-21T13:20:40.124Z,6.32
2022-08-21T13:23:45.115Z,2.60
2022-08-21T13:26:53.632Z,3.25
2022-08-21T13:30:11.242Z,2.33
2022-08-21T13:33:18.620Z,5.38
2022-08-21T13:36:27.973Z,3.88
2022-08-21T13:39:33.708Z,2.72
2022-08-21T13:42:36.924Z,3.25
2022-08-21T13:45:40.094Z,2.53
2022-08-21T13:48:44.312Z,3.72
2022-08-21T13:51:48.530Z,3.83
2022-08-21T13:54:59.371Z,1.98
2022-08-21T13:58:04.027Z,3.42
2022-08-21T14:01:07.338Z,4.28
2022-08-21T14:04:25.898Z,4.10
2022-08-21T14:07:34.027Z,4.07
2022-08-21T14:10:46.817Z,5.43
2022-08-21T14:13:57.842Z,5.45
2022-08-21T14:17:24.004Z,2.55
2022-08-21T14:20:34.056Z,2.80
2022-08-21T14:23:39.182Z,3.25
2022-08-21T14:26:53.248Z,3.78
2022-08-21T14:30:02.447Z,7.00
2022-08-21T14:33:11.227Z,2.95
2022-08-21T14:36:14.383Z,5.95
2022-08-21T14:39:17.549Z,4.78
2022-08-21T14:42:22.618Z,5.07
2022-08-21T14:45:30.323Z,5.88
2022-08-21T14:48:33.463Z,7.72
2022-08-21T14:51:36.536Z,5.32
2022-08-21T14:54:57.010Z,4.10
2022-08-21T14:58:02.797Z,4.88
2022-08-21T15:01:12.044Z,7.88
2022-08-21T15:04:15.259Z,4.68
2022-08-21T15:07:18.289Z,5.65
2022-08-21T15:10:21.500Z,3.75
2022-08-21T15:13:26.132Z,5.90
2022-08-21T15:16:31.137Z,5.80
2022-08-21T15:19:35.424Z,4.78
2022-08-21T15:22:38.402Z,8.23
2022-08-21T15:25:44.722Z,5.45
2022-08-21T15:28:49.030Z,4.00
2022-08-21T15:31:56.651Z,6.80
2022-08-21T15:35:00.831Z,6.95
2022-08-21T15:38:04.068Z,8.00
2022-08-21T15:41:07.773Z,3.88
2022-08-21T15:44:14.395Z,6.10
2022-08-21T15:47:24.330Z,6.40
2022-08-21T15:50:27.734Z,8.55
2022-08-21T15:53:32.889Z,6.13
2022-08-21T15:56:39.081Z,7.60
2022-08-21T15:59:46.195Z,8.32
2022-08-21T16:02:53.032Z,8.57
2022-08-21T16:05:58.040Z,5.97
2022-08-21T16:09:02.920Z,7.60
2022-08-21T16:12:06.951Z,4.57
2022-08-21T16:15:17.821Z,4.55
2022-08-21T16:18:26.531Z,5.45
2022-08-21T16:21:30.063Z,4.25
2022-08-21T16:24:33.247Z,4.35
2022-08-21T16:27:39.729Z,4.70
2022-08-21T16:30:46.407Z,8.85
2022-08-21T16:33:57.181Z,11.63
2022-08-21T16:37:01.054Z,4.60
2022-08-21T16:40:05.903Z,8.10
2022-08-21T16:43:09.186Z,10.85
2022-08-21T16:46:15.765Z,5.80
2022-08-21T16:49:18.753Z,5.30
2022-08-21T16:52:21.734Z,8.43
2022-08-21T16:55:25.133Z,5.05
2022-08-21T16:58:31.500Z,3.70
2022-08-21T17:01:37.005Z,6.63
2022-08-21T17:04:40.075Z,4.90
2022-08-21T17:07:44.720Z,5.95
2022-08-21T17:10:50.721Z,5.50
2022-08-21T17:13:53.932Z,7.20
2022-08-21T17:16:58.401Z,7.43
2022-08-21T17:20:02.094Z,11.40
2022-08-21T17:23:05.549Z,8.75
2022-08-21T17:26:12.637Z,10.80
2022-08-21T17:29:16.797Z,6.90
2022-08-21T17:32:21.436Z,6.38
2022-08-21T17:35:24.853Z,12.77
2022-08-21T17:38:28.078Z,5.13
2022-08-21T17:41:31.371Z,14.38
2022-08-21T17:44:35.662Z,8.68
2022-08-21T17:47:40.088Z,3.95
2022-08-21T17:50:44.192Z,5.82
2022-08-21T17:53:47.608Z,4.22
2022-08-21T17:56:51.785Z,6.35
2022-08-21T17:59:58.394Z,7.50
2022-08-21T18:03:08.963Z,4.88
2022-08-21T18:06:16.975Z,6.97
2022-08-21T18:09:23.104Z,5.80
2022-08-21T18:12:26.814Z,10.50
2022-08-21T18:15:34.226Z,9.35
2022-08-21T18:18:48.316Z,9.95
2022-08-21T18:21:58.866Z,13.98
2022-08-21T18:25:14.251Z,8.18
2022-08-21T18:28:25.920Z,9.50
2022-08-21T18:31:33.171Z,11.68
2022-08-21T18:34:41.492Z,11.55
2022-08-21T18:37:46.485Z,8.68
2022-08-21T18:40:56.056Z,10.57
2022-08-21T18:44:00.215Z,9.23
2022-08-21T18:47:08.594Z,9.57
2022-08-21T18:50:16.127Z,12.00
2022-08-21T18:53:27.923Z,7.93
2022-08-21T18:56:33.811Z,9.88
2022-08-21T18:59:38.050Z,9.20
2022-08-21T19:02:44.300Z,10.00
2022-08-21T19:05:49.673Z,9.07
2022-08-21T19:08:52.925Z,13.20
2022-08-21T19:11:57.363Z,12.50
2022-08-21T19:15:01.312Z,12.90
2022-08-21T19:18:09.183Z,13.50
2022-08-21T19:21:58.615Z,10.77
2022-08-21T19:25:04.714Z,10.00
2022-08-21T19:28:14.654Z,16.23
2022-08-21T19:31:23.656Z,8.32
2022-08-21T19:34:29.859Z,13.27
2022-08-21T19:37:35.271Z,10.80
2022-08-21T19:40:39.952Z,8.57
2022-08-21T19:43:49.082Z,11.70
2022-08-21T19:46:55.150Z,9.15
2022-08-21T19:50:03.863Z,12.98
2022-08-21T19:53:22.801Z,14.63
2022-08-21T19:56:30.735Z,10.25
2022-08-21T19:59:34.989Z,14.90
2022-08-21T20:02:38.019Z,18.90
2022-08-21T20:05:51.042Z,13.48
2022-08-21T20:08:58.774Z,9.82
2022-08-21T20:12:10.068Z,12.00
2022-08-21T20:15:13.822Z,9.93
2022-08-21T20:18:19.259Z,9.68
2022-08-21T20:21:30.150Z,13.05
2022-08-21T20:24:48.079Z,9.00
2022-08-21T20:27:51.091Z,10.48
2022-08-21T20:30:54.259Z,9.85
2022-08-21T20:33:58.104Z,9.43
2022-08-21T20:37:01.084Z,8.60
2022-08-21T20:40:10.259Z,13.65
2022-08-21T20:43:14.450Z,10.85
2022-08-21T20:46:22.198Z,9.18
2022-08-21T20:49:37.143Z,11.48
2022-08-21T20:52:42.994Z,11.38
2022-08-21T20:55:50.430Z,9.45
2022-08-21T20:59:01.470Z,8.73
2022-08-21T21:02:20.405Z,7.45
2022-08-21T21:05:28.261Z,7.05
2022-08-21T21:08:41.701Z,8.18
2022-08-21T21:11:56.374Z,8.10
2022-08-21T21:15:05.502Z,6.85
2022-08-21T21:18:14.439Z,8.30
2022-08-21T21:21:27.702Z,7.53
2022-08-21T21:24:38.489Z,7.43
2022-08-21T21:27:50.888Z,10.07
2022-08-21T21:34:17.377Z,7.22
2022-08-21T21:37:26.093Z,7.53
2022-08-21T21:40:42.791Z,8.38
2022-08-21T21:44:06.914Z,7.63
2022-08-21T21:47:24.683Z,6.93
2022-08-21T21:50:44.925Z,8.05
2022-08-21T21:53:57.216Z,7.50
2022-08-21T21:57:12.091Z,10.32
2022-08-21T22:00:24.362Z,6.45
2022-08-21T22:03:37.028Z,6.03
2022-08-21T22:06:46.118Z,10.48
2022-08-21T22:10:05.780Z,7.05
2022-08-21T22:13:26.216Z,8.60
2022-08-21T22:16:32.883Z,5.97
2022-08-21T22:19:42.515Z,6.45
2022-08-21T22:22:47.225Z,10.23
2022-08-21T22:25:57.550Z,8.95
2022-08-21T22:29:05.707Z,9.32
2022-08-21T22:32:13.149Z,8.40
2022-08-21T22:35:21.395Z,8.70
2022-08-21T22:38:33.315Z,10.38
2022-08-21T22:41:42.544Z,8.77
2022-08-21T22:44:51.986Z,6.95
2022-08-21T22:48:05.329Z,8.35
2022-08-21T22:51:33.810Z,7.03
2022-08-21T22:54:40.248Z,13.55
2022-08-21T22:57:46.497Z,10.48
2022-08-21T23:00:58.083Z,8.30
2022-08-21T23:04:18.883Z,8.27
2022-08-21T23:07:43.697Z,7.22
2022-08-21T23:10:48.199Z,6.20
2022-08-21T23:13:54.042Z,7.30
2022-08-21T23:17:03.901Z,11.93
2022-08-21T23:20:18.493Z,8.52
2022-08-21T23:23:24.783Z,7.60
2022-08-21T23:26:35.439Z,9.10
2022-08-21T23:29:51.723Z,8.38
2022-08-21T23:33:25.796Z,16.60
2022-08-21T23:37:08.381Z,9.93
2022-08-21T23:40:27.915Z,14.43
2022-08-21T23:43:46.746Z,8.75
2022-08-21T23:47:11.726Z,7.78
2022-08-21T23:50:25.920Z,14.00
2022-08-21T23:53:44.253Z,13.13
2022-08-21T23:57:10.679Z,11.18
